Time;durP1;ratioP1;P1;durP2;ratioP2;P2;SDS_P1;SDS_P2;PMS_P1;PMS_P2;Temp;Humidity;BMP_temperature;BMP_pressure;BME280_temperature;BME280_humidity;BME280_pressure;Samples;Min_cycle;Max_cycle;Signal;HPM_P1;HPM_P2
2022/10/13 11:56:21;;;;;;;4.07;3.57;;;14.40;63.70;;;;;;5133197;27;20563;-47
2022/10/13 11:58:49;;;;;;;3.33;3.00;;;14.40;65.10;;;;;;5094412;28;20473;-47
2022/10/13 12:01:19;;;;;;;4.50;3.70;;;14.40;64.80;;;;;;5052520;28;20434;-49
2022/10/13 12:03:48;;;;;;;4.70;2.90;;;14.40;65.10;;;;;;5065773;28;21015;-48
2022/10/13 12:06:32;;;;;;;3.37;3.07;;;14.40;65.70;;;;;;5069836;28;20517;-49
2022/10/13 12:09:07;;;;;;;4.40;3.63;;;14.50;65.50;;;;;;5084697;28;20527;-48
2022/10/13 12:11:38;;;;;;;4.93;3.13;;;14.50;65.40;;;;;;5078945;28;20429;-48
2022/10/13 12:14:18;;;;;;;3.23;2.63;;;14.50;65.20;;;;;;5086896;28;20483;-49
2022/10/13 12:16:53;;;;;;;4.00;3.23;;;14.50;64.90;;;;;;5069153;28;20468;-49
2022/10/13 12:19:24;;;;;;;3.43;2.90;;;14.50;64.80;;;;;;5071665;28;20422;-49
2022/10/13 12:21:56;;;;;;;4.00;2.80;;;14.50;64.60;;;;;;5090132;28;20491;-48
2022/10/13 12:24:28;;;;;;;4.73;3.37;;;14.50;64.40;;;;;;5058656;28;20976;-48
2022/10/13 12:26:59;;;;;;;4.00;2.87;;;14.50;64.20;;;;;;5059322;28;20504;-47
2022/10/13 12:29:29;;;;;;;3.80;2.70;;;14.50;64.00;;;;;;5075651;28;20456;-48
2022/10/13 12:32:19;;;;;;;3.43;3.03;;;14.50;64.00;;;;;;5079676;28;20460;-48
2022/10/13 12:34:48;;;;;;;2.80;2.60;;;14.50;63.80;;;;;;5066475;28;20466;-48
2022/10/13 12:37:26;;;;;;;3.30;3.00;;;14.50;63.70;;;;;;5061575;28;20475;-49
2022/10/13 12:39:57;;;;;;;2.90;2.70;;;14.50;63.60;;;;;;5066545;28;20426;-48
2022/10/13 12:42:30;;;;;;;3.77;2.90;;;14.60;63.70;;;;;;5041699;28;20447;-49
2022/10/13 12:45:00;;;;;;;3.13;2.53;;;14.50;63.50;;;;;;5044058;28;20474;-47
2022/10/13 12:47:45;;;;;;;3.30;2.70;;;14.60;63.50;;;;;;5060033;28;20434;-48
2022/10/13 12:50:36;;;;;;;3.10;2.67;;;14.60;63.40;;;;;;5066082;28;20431;-50
2022/10/13 12:53:15;;;;;;;3.53;2.90;;;14.60;63.40;;;;;;5062332;28;20497;-48
2022/10/13 12:55:57;;;;;;;4.50;3.27;;;14.60;63.30;;;;;;5067255;28;20910;-47
2022/10/13 12:58:31;;;;;;;3.33;3.03;;;14.60;63.30;;;;;;5065736;28;20469;-48
2022/10/13 13:01:20;;;;;;;2.47;2.27;;;14.60;63.20;;;;;;5060835;28;20435;-48
2022/10/13 13:03:55;;;;;;;3.83;3.10;;;14.60;63.40;;;;;;5044670;28;20925;-48
2022/10/13 13:06:31;;;;;;;4.13;2.67;;;14.60;64.50;;;;;;5042326;28;20844;-48
2022/10/13 13:09:25;;;;;;;2.90;2.70;;;14.60;63.10;;;;;;5052189;28;20492;-48
2022/10/13 13:12:22;;;;;;;3.67;3.37;;;14.60;63.10;;;;;;5049495;28;20811;-48
2022/10/13 13:14:56;;;;;;;3.13;2.83;;;14.60;63.60;;;;;;5068302;28;20826;-47
2022/10/13 13:17:31;;;;;;;4.93;2.63;;;14.60;63.50;;;;;;5050209;28;20503;-48
2022/10/13 13:20:24;;;;;;;3.03;2.73;;;14.60;63.40;;;;;;5055146;28;20443;-47
2022/10/13 13:22:53;;;;;;;3.50;2.73;;;14.60;63.40;;;;;;5054901;28;20474;-47
2022/10/13 13:25:22;;;;;;;3.27;2.30;;;14.60;63.20;;;;;;5064398;28;20454;-48
2022/10/13 13:27:51;;;;;;;2.60;2.37;;;14.60;63.30;;;;;;5055467;28;20450;-48
2022/10/13 13:30:23;;;;;;;3.23;2.67;;;14.60;63.20;;;;;;5055354;28;20470;-48
2022/10/13 13:32:52;;;;;;;2.20;2.10;;;14.60;63.50;;;;;;5055140;28;20480;-48
2022/10/13 13:35:20;;;;;;;2.27;2.07;;;14.60;63.20;;;;;;5073412;28;20553;-48
2022/10/13 13:37:51;;;;;;;2.40;2.20;;;14.60;63.40;;;;;;5077545;28;20473;-47
2022/10/13 13:40:22;;;;;;;2.97;2.77;;;14.60;63.20;;;;;;5051565;28;20446;-48
2022/10/13 13:42:51;;;;;;;4.30;3.10;;;14.60;64.00;;;;;;5054934;28;20577;-49
2022/10/13 13:45:23;;;;;;;9.07;4.47;;;14.70;65.90;;;;;;5042682;28;20915;-48
2022/10/13 13:47:54;;;;;;;8.15;4.50;;;14.70;70.00;;;;;;5044425;28;20851;-48
2022/10/13 13:50:31;;;;;;;5.33;4.30;;;14.80;75.60;;;;;;5076495;28;20668;-50
2022/10/13 13:53:00;;;;;;;5.33;3.93;;;14.80;75.50;;;;;;5052199;28;20474;-49
2022/10/13 13:55:29;;;;;;;6.90;4.43;;;14.80;75.40;;;;;;5063524;28;20508;-47
2022/10/13 13:57:58;;;;;;;4.53;3.60;;;14.90;75.60;;;;;;5056005;28;20621;-48
2022/10/13 14:00:28;;;;;;;5.30;4.17;;;14.90;75.60;;;;;;5045326;28;20427;-48
2022/10/13 14:02:56;;;;;;;3.10;2.77;;;14.90;75.50;;;;;;5033630;28;20507;-48
2022/10/13 14:05:25;;;;;;;3.90;3.40;;;14.90;75.40;;;;;;5034143;28;20447;-47
2022/10/13 14:07:56;;;;;;;3.93;3.13;;;14.90;75.50;;;;;;5033131;28;20986;-48
2022/10/13 14:10:25;;;;;;;3.80;3.50;;;14.90;75.40;;;;;;5051300;28;20474;-49
2022/10/13 14:12:54;;;;;;;4.03;3.20;;;14.90;75.40;;;;;;5052142;28;20845;-48
2022/10/13 14:15:22;;;;;;;3.20;2.83;;;14.90;75.40;;;;;;5047839;28;20994;-50
2022/10/13 14:17:58;;;;;;;5.63;3.97;;;15.00;75.70;;;;;;5043733;28;20457;-49
2022/10/13 14:20:26;;;;;;;4.67;4.27;;;15.00;76.00;;;;;;5050676;28;20509;-49
2022/10/13 14:22:54;;;;;;;4.20;3.80;;;15.00;76.00;;;;;;5068024;28;20481;-49
2022/10/13 14:25:23;;;;;;;4.70;4.00;;;15.00;75.90;;;;;;5071783;28;20459;-48
2022/10/13 14:27:51;;;;;;;3.83;3.40;;;15.00;76.70;;;;;;5059754;28;20986;-48
2022/10/13 14:30:20;;;;;;;5.90;4.17;;;15.00;76.50;;;;;;5051382;28;20439;-50
2022/10/13 14:32:51;;;;;;;5.20;3.10;;;15.00;76.70;;;;;;5069670;28;20849;-50
2022/10/13 14:35:21;;;;;;;4.20;3.63;;;15.00;76.40;;;;;;5053605;28;20468;-48
2022/10/13 14:37:50;;;;;;;4.40;4.00;;;15.00;76.70;;;;;;5071664;28;20478;-48
2022/10/13 14:40:18;;;;;;;4.30;3.60;;;15.00;77.30;;;;;;5070072;28;20789;-48
2022/10/13 14:42:46;;;;;;;5.07;3.97;;;15.00;76.80;;;;;;5070620;28;20473;-50
2022/10/13 14:45:15;;;;;;;3.10;2.90;;;15.00;77.30;;;;;;5061192;28;20471;-48
2022/10/13 14:47:44;;;;;;;4.20;3.80;;;15.10;76.90;;;;;;5053076;28;20466;-48
2022/10/13 14:50:12;;;;;;;3.77;3.40;;;15.00;76.90;;;;;;5071737;28;20427;-48
2022/10/13 14:52:45;;;;;;;3.80;3.40;;;15.00;76.80;;;;;;5051762;28;20506;-48
2022/10/13 14:55:14;;;;;;;4.60;3.00;;;15.00;76.30;;;;;;5086598;28;20531;-48
2022/10/13 14:57:43;;;;;;;4.13;3.73;;;15.00;76.40;;;;;;5069500;28;20999;-48
2022/10/13 15:00:13;;;;;;;4.07;3.30;;;15.10;76.30;;;;;;5051137;28;20447;-48
2022/10/13 15:02:41;;;;;;;4.20;3.27;;;15.10;76.60;;;;;;5064468;28;20841;-49
2022/10/13 15:05:10;;;;;;;4.57;3.77;;;15.10;76.10;;;;;;5052983;28;20821;-48
2022/10/13 15:07:41;;;;;;;3.30;3.10;;;15.10;75.90;;;;;;5049217;28;20470;-49
2022/10/13 15:10:11;;;;;;;4.13;3.20;;;15.10;76.10;;;;;;5052922;28;20909;-48
2022/10/13 15:12:39;;;;;;;5.43;4.10;;;15.00;75.80;;;;;;5068788;28;20494;-49
2022/10/13 15:15:08;;;;;;;3.33;3.03;;;15.10;76.20;;;;;;5060287;28;20561;-48
2022/10/13 15:17:37;;;;;;;4.67;3.80;;;15.00;75.90;;;;;;5069136;28;20465;-49
2022/10/13 15:20:07;;;;;;;3.23;2.93;;;15.10;76.20;;;;;;5052832;28;20852;-49
2022/10/13 15:22:36;;;;;;;4.90;3.30;;;15.00;75.60;;;;;;5067276;28;21008;-48
2022/10/13 15:25:10;;;;;;;4.17;3.77;;;15.10;76.10;;;;;;5069799;28;20450;-48
2022/10/13 15:27:39;;;;;;;3.10;2.83;;;15.10;75.50;;;;;;5043609;28;20462;-49
2022/10/13 15:30:11;;;;;;;3.90;2.63;;;15.10;75.10;;;;;;5080461;28;20438;-49
2022/10/13 15:32:39;;;;;;;4.20;3.30;;;15.10;74.80;;;;;;5067039;28;20454;-51
2022/10/13 15:35:09;;;;;;;4.77;4.27;;;15.10;75.30;;;;;;5071374;28;20469;-48
2022/10/13 15:37:41;;;;;;;4.50;4.10;;;15.10;76.60;;;;;;5067557;28;20502;-49
2022/10/13 15:40:13;;;;;;;3.90;3.03;;;15.10;76.30;;;;;;5069803;28;20476;-48
2022/10/13 15:42:41;;;;;;;3.50;3.10;;;15.10;75.80;;;;;;5054592;28;20473;-49
2022/10/13 15:45:11;;;;;;;4.07;3.67;;;15.00;75.00;;;;;;5070968;28;20472;-49
2022/10/13 15:47:40;;;;;;;2.90;2.47;;;15.10;75.60;;;;;;5031451;28;20462;-50
2022/10/13 15:50:10;;;;;;;3.67;3.07;;;15.10;75.40;;;;;;5067017;28;20515;-49
2022/10/13 15:52:39;;;;;;;4.40;2.87;;;15.10;74.90;;;;;;5062275;28;20481;-49
2022/10/13 15:55:11;;;;;;;2.93;2.70;;;15.10;75.00;;;;;;5067865;28;20466;-49
2022/10/13 15:57:40;;;;;;;2.80;2.57;;;15.10;74.70;;;;;;5071843;28;20519;-49
2022/10/13 16:00:11;;;;;;;3.70;2.57;;;15.10;75.00;;;;;;5031221;28;20912;-48
2022/10/13 16:02:41;;;;;;;2.80;2.47;;;15.10;74.70;;;;;;5052160;28;20462;-48
2022/10/13 16:05:12;;;;;;;3.60;3.00;;;15.10;74.50;;;;;;5069221;28;20458;-48
2022/10/13 16:07:41;;;;;;;3.07;2.63;;;15.10;74.90;;;;;;5067944;28;20513;-48
2022/10/13 16:10:16;;;;;;;3.67;3.00;;;15.10;76.10;;;;;;5069024;28;20434;-49
2022/10/13 16:12:45;;;;;;;3.20;2.90;;;15.10;75.00;;;;;;5060025;28;20469;-49
2022/10/13 16:15:18;;;;;;;2.90;2.60;;;15.10;74.60;;;;;;5081044;28;20558;-48
2022/10/13 16:17:51;;;;;;;3.10;2.67;;;15.10;74.40;;;;;;5068673;28;20478;-48
2022/10/13 16:20:20;;;;;;;2.90;2.70;;;15.10;74.20;;;;;;5053394;28;20426;-48
2022/10/13 16:22:49;;;;;;;4.27;3.30;;;15.10;74.70;;;;;;5050785;28;20470;-49
2022/10/13 16:25:19;;;;;;;3.20;2.70;;;15.10;74.40;;;;;;5070653;28;20511;-49
2022/10/13 16:27:48;;;;;;;2.80;2.47;;;15.10;74.00;;;;;;5052585;28;20473;-48
2022/10/13 16:30:17;;;;;;;3.50;2.80;;;15.10;73.90;;;;;;5071215;28;20461;-49
2022/10/13 16:32:46;;;;;;;4.27;3.90;;;15.10;73.90;;;;;;5033345;28;20502;-47
2022/10/13 16:35:15;;;;;;;2.80;2.60;;;15.10;74.00;;;;;;5069520;28;20446;-49
2022/10/13 16:37:43;;;;;;;2.80;2.60;;;15.10;73.90;;;;;;5067378;28;20523;-49
2022/10/13 16:40:13;;;;;;;3.00;2.70;;;15.10;73.70;;;;;;5069475;28;20449;-48
2022/10/13 16:42:43;;;;;;;3.13;2.83;;;15.10;73.60;;;;;;5069352;28;20481;-49
2022/10/13 16:45:13;;;;;;;3.13;2.80;;;15.10;73.60;;;;;;5083493;28;20819;-49
2022/10/13 16:47:41;;;;;;;2.97;2.77;;;15.10;74.20;;;;;;5072294;28;20473;-49
2022/10/13 16:50:10;;;;;;;4.33;3.07;;;15.10;74.00;;;;;;5073102;28;20438;-48
2022/10/13 16:52:39;;;;;;;3.40;3.10;;;15.10;74.60;;;;;;5068879;28;20480;-49
2022/10/13 16:55:09;;;;;;;3.80;3.03;;;15.10;75.00;;;;;;5056742;28;20485;-49
2022/10/13 16:57:37;;;;;;;2.90;2.70;;;15.10;75.00;;;;;;5060552;28;20501;-49
2022/10/13 17:00:09;;;;;;;3.67;2.80;;;15.10;75.20;;;;;;5070591;28;20422;-49
2022/10/13 17:02:38;;;;;;;3.10;2.80;;;15.10;75.70;;;;;;5080860;28;20478;-50
2022/10/13 17:05:06;;;;;;;4.03;2.90;;;15.10;75.20;;;;;;5068550;28;20458;-49
2022/10/13 17:07:35;;;;;;;2.90;2.70;;;15.10;75.30;;;;;;5077633;28;20462;-50
2022/10/13 17:10:04;;;;;;;3.10;2.90;;;15.10;74.90;;;;;;5067504;28;20433;-49
2022/10/13 17:12:32;;;;;;;2.77;2.57;;;15.10;74.70;;;;;;5069972;28;20462;-51
2022/10/13 17:15:01;;;;;;;3.20;2.90;;;15.10;74.50;;;;;;5086717;28;20461;-50
2022/10/13 17:17:31;;;;;;;3.03;2.73;;;15.10;74.50;;;;;;5068928;28;20556;-50
2022/10/13 17:19:59;;;;;;;2.90;2.70;;;15.10;74.30;;;;;;5078991;28;20438;-50
2022/10/13 17:22:27;;;;;;;2.57;2.37;;;15.10;74.40;;;;;;5068880;28;21003;-49
2022/10/13 17:24:56;;;;;;;2.80;2.60;;;15.10;74.50;;;;;;5084117;22;20506;-64
2022/10/13 17:27:24;;;;;;;3.10;2.87;;;15.10;74.30;;;;;;5065737;28;20448;-64
2022/10/13 17:29:53;;;;;;;3.00;2.67;;;15.10;74.50;;;;;;5035432;28;20790;-64
2022/10/13 17:32:22;;;;;;;2.93;2.63;;;15.10;74.50;;;;;;5053688;28;20551;-64
2022/10/13 17:34:52;;;;;;;3.37;2.50;;;15.10;74.20;;;;;;5032532;28;20428;-64
2022/10/13 17:37:20;;;;;;;2.93;2.73;;;15.10;74.50;;;;;;5015240;23;20562;-73
2022/10/13 17:39:49;;;;;;;3.10;2.70;;;15.10;74.50;;;;;;4977976;28;20441;-73
2022/10/13 17:42:18;;;;;;;2.53;2.33;;;15.10;74.10;;;;;;4995867;28;20492;-72
2022/10/13 17:44:48;;;;;;;2.70;2.50;;;15.10;74.00;;;;;;5020090;28;20448;-74
2022/10/13 17:47:16;;;;;;;2.77;2.40;;;15.10;74.40;;;;;;5002062;28;20503;-73
2022/10/13 17:49:45;;;;;;;2.67;2.30;;;15.10;74.30;;;;;;4994889;28;20437;-73
2022/10/13 17:52:17;;;;;;;3.03;2.83;;;15.10;74.20;;;;;;4988702;28;20434;-74
2022/10/13 17:54:46;;;;;;;3.50;2.90;;;15.10;73.90;;;;;;4997334;28;20964;-74
2022/10/13 17:57:15;;;;;;;3.47;2.40;;;15.10;74.10;;;;;;4991398;28;20563;-72
2022/10/13 17:59:45;;;;;;;2.73;2.53;;;15.10;74.00;;;;;;4997818;28;20443;-72
2022/10/13 18:02:13;;;;;;;2.53;2.30;;;15.10;73.90;;;;;;4995008;28;20824;-72
2022/10/13 18:04:42;;;;;;;2.63;2.20;;;15.10;74.00;;;;;;4993207;28;20433;-73
2022/10/13 18:07:11;;;;;;;3.27;2.80;;;15.10;74.20;;;;;;5003349;28;20991;-74
2022/10/13 18:09:40;;;;;;;3.77;2.63;;;15.10;73.90;;;;;;5009891;28;20449;-73
2022/10/13 18:12:11;;;;;;;2.50;2.30;;;15.10;74.10;;;;;;4968586;28;20516;-75
2022/10/13 18:14:39;;;;;;;2.50;2.30;;;15.10;74.10;;;;;;4992458;28;20459;-73
2022/10/13 18:17:10;;;;;;;2.87;2.57;;;15.10;74.00;;;;;;4990235;28;20460;-73
2022/10/13 18:19:38;;;;;;;3.30;2.60;;;15.10;74.30;;;;;;4992261;28;20436;-74
2022/10/13 18:22:07;;;;;;;4.00;2.50;;;15.10;74.00;;;;;;4987976;28;20480;-73
2022/10/13 18:24:36;;;;;;;3.53;3.10;;;15.10;73.90;;;;;;4993708;28;20455;-74
2022/10/13 18:27:06;;;;;;;2.50;2.30;;;15.10;73.70;;;;;;4988775;28;20461;-74
2022/10/13 18:29:35;;;;;;;2.80;2.53;;;15.10;73.90;;;;;;4979482;28;20796;-73
2022/10/13 18:32:04;;;;;;;2.50;2.30;;;15.10;74.00;;;;;;4984262;28;20480;-73
2022/10/13 18:34:32;;;;;;;2.63;2.43;;;15.10;73.80;;;;;;4989315;28;20438;-74
2022/10/13 18:37:01;;;;;;;2.23;2.03;;;15.10;73.60;;;;;;4992027;28;20862;-75
2022/10/13 18:39:29;;;;;;;4.10;2.07;;;15.10;73.70;;;;;;5005206;28;20460;-73
2022/10/13 18:41:58;;;;;;;3.80;2.80;;;15.10;73.60;;;;;;4968856;28;20466;-72
2022/10/13 18:44:35;;;;;;;2.70;2.43;;;15.10;73.30;;;;;;4975529;28;20499;-74
2022/10/13 18:47:05;;;;;;;2.67;2.47;;;15.10;73.60;;;;;;4991930;28;20557;-73
2022/10/13 18:49:33;;;;;;;3.30;2.63;;;15.10;73.50;;;;;;4983624;28;20841;-74
2022/10/13 18:52:02;;;;;;;4.33;2.57;;;15.10;73.60;;;;;;4981015;28;20481;-73
2022/10/13 18:54:31;;;;;;;3.63;3.33;;;15.10;73.50;;;;;;4965975;28;20452;-74
2022/10/13 18:56:59;;;;;;;3.10;2.80;;;15.10;73.30;;;;;;4974394;28;20531;-74
2022/10/13 18:59:27;;;;;;;3.63;2.90;;;15.10;73.70;;;;;;4985281;28;20475;-72
2022/10/13 19:01:57;;;;;;;4.17;2.33;;;15.10;73.30;;;;;;4991847;28;20565;-72
2022/10/13 19:04:26;;;;;;;3.53;2.50;;;15.20;73.70;;;;;;4989084;28;20837;-74
2022/10/13 19:06:54;;;;;;;3.10;2.90;;;15.10;73.60;;;;;;4993068;28;20461;-74
2022/10/13 19:09:23;;;;;;;2.87;2.57;;;15.10;73.60;;;;;;4989077;28;20422;-73
2022/10/13 19:11:52;;;;;;;5.70;2.57;;;15.10;73.30;;;;;;4999057;28;20437;-74
2022/10/13 19:14:21;;;;;;;4.10;2.80;;;15.20;73.60;;;;;;5009896;28;20751;-74
2022/10/13 19:16:50;;;;;;;2.17;2.07;;;15.10;73.80;;;;;;4997112;28;20511;-74
2022/10/13 19:19:21;;;;;;;2.13;1.93;;;15.10;73.30;;;;;;4984218;28;20467;-74
2022/10/13 19:21:54;;;;;;;2.83;2.53;;;15.10;73.50;;;;;;4998258;28;20519;-73
2022/10/13 19:24:22;;;;;;;2.80;2.00;;;15.10;73.90;;;;;;4984052;28;20436;-74
2022/10/13 19:26:50;;;;;;;2.40;2.20;;;15.10;73.60;;;;;;5008893;28;21026;-74
2022/10/13 19:29:19;;;;;;;3.30;2.43;;;15.10;73.50;;;;;;4992879;28;20436;-73
2022/10/13 19:31:47;;;;;;;3.70;2.57;;;15.10;73.40;;;;;;4981829;28;20434;-71
2022/10/13 19:34:16;;;;;;;5.00;3.63;;;15.20;74.00;;;;;;5006015;28;20448;-72
2022/10/13 19:36:47;;;;;;;2.70;2.20;;;15.20;73.50;;;;;;5004707;28;20471;-74
2022/10/13 19:39:17;;;;;;;2.03;1.83;;;15.20;73.60;;;;;;5007162;28;20476;-74
2022/10/13 19:41:47;;;;;;;3.07;2.77;;;15.10;73.50;;;;;;4992395;28;20448;-73
2022/10/13 19:44:17;;;;;;;2.23;2.03;;;15.10;73.60;;;;;;4992370;28;20432;-73
2022/10/13 19:46:46;;;;;;;3.57;2.73;;;15.10;73.60;;;;;;4986282;28;20461;-72
2022/10/13 19:49:16;;;;;;;2.67;2.47;;;15.10;73.50;;;;;;4985837;28;20476;-73
2022/10/13 19:51:47;;;;;;;2.30;2.10;;;15.10;73.20;;;;;;4985851;28;20477;-75
2022/10/13 19:54:18;;;;;;;3.40;2.37;;;15.20;73.50;;;;;;4972675;28;20479;-74
2022/10/13 19:56:48;;;;;;;2.83;2.63;;;15.10;73.60;;;;;;4997259;28;20453;-72
2022/10/13 19:59:17;;;;;;;3.67;2.90;;;15.10;73.40;;;;;;4997971;28;20465;-74
2022/10/13 20:01:46;;;;;;;2.63;2.40;;;15.10;73.50;;;;;;4982202;28;20964;-73
2022/10/13 20:04:17;;;;;;;4.00;2.30;;;15.10;73.60;;;;;;4982251;28;20541;-74
2022/10/13 20:06:47;;;;;;;4.20;3.23;;;15.10;73.60;;;;;;4988098;28;20456;-73
2022/10/13 20:09:16;;;;;;;2.03;1.90;;;15.20;74.10;;;;;;5006880;28;20441;-73
2022/10/13 20:11:45;;;;;;;2.53;2.33;;;15.10;73.80;;;;;;4996754;28;20848;-72
2022/10/13 20:14:14;;;;;;;3.00;2.30;;;15.20;73.60;;;;;;4967531;28;20449;-73
2022/10/13 20:16:42;;;;;;;2.43;2.23;;;15.10;73.20;;;;;;4995229;28;21032;-73
2022/10/13 20:19:13;;;;;;;2.17;2.07;;;15.10;73.10;;;;;;5006156;28;20889;-73
2022/10/13 20:21:42;;;;;;;2.10;2.00;;;15.10;73.00;;;;;;4990247;28;20456;-74
2022/10/13 20:24:12;;;;;;;2.40;2.30;;;15.20;73.30;;;;;;4986138;28;20829;-74
2022/10/13 20:26:41;;;;;;;3.87;2.63;;;15.20;72.90;;;;;;5003875;28;20489;-74
2022/10/13 20:29:09;;;;;;;3.10;2.70;;;15.10;72.70;;;;;;5012991;28;20495;-73
2022/10/13 20:31:38;;;;;;;2.50;2.30;;;15.10;72.70;;;;;;4994021;28;20540;-73
2022/10/13 20:34:06;;;;;;;2.90;2.40;;;15.10;72.70;;;;;;4994418;28;20437;-74
2022/10/13 20:36:34;;;;;;;3.00;2.43;;;15.20;72.80;;;;;;4985086;28;20559;-72
2022/10/13 20:39:07;;;;;;;2.60;2.40;;;15.20;73.10;;;;;;4984620;28;20504;-72
2022/10/13 20:41:37;;;;;;;2.47;2.20;;;15.10;72.90;;;;;;4995858;28;20432;-72
2022/10/13 20:44:08;;;;;;;2.73;2.53;;;15.20;73.30;;;;;;4995584;28;20436;-73
2022/10/13 20:46:36;;;;;;;3.10;2.07;;;15.10;73.10;;;;;;4995259;28;20556;-74
2022/10/13 20:49:05;;;;;;;2.97;2.50;;;15.10;73.30;;;;;;4993621;28;20448;-73
2022/10/13 20:51:39;;;;;;;2.23;2.03;;;15.10;72.90;;;;;;4996822;28;20523;-72
2022/10/13 20:54:08;;;;;;;3.10;2.43;;;15.20;73.10;;;;;;4995466;28;20486;-73
2022/10/13 20:56:38;;;;;;;2.67;2.47;;;15.10;73.10;;;;;;4997059;28;20932;-72
2022/10/13 20:59:09;;;;;;;2.30;2.10;;;15.20;73.40;;;;;;4996427;28;21070;-74
2022/10/13 21:01:38;;;;;;;2.23;2.03;;;15.20;73.00;;;;;;4988604;28;20998;-74
2022/10/13 21:04:07;;;;;;;2.37;2.10;;;15.20;73.10;;;;;;4994848;28;20516;-73
2022/10/13 21:06:35;;;;;;;2.70;2.50;;;15.10;73.00;;;;;;4995157;28;20994;-72
2022/10/13 21:09:05;;;;;;;3.33;2.77;;;15.20;72.80;;;;;;4980792;28;20451;-74
2022/10/13 21:11:34;;;;;;;4.33;2.30;;;15.20;73.60;;;;;;4997287;28;20425;-74
2022/10/13 21:14:05;;;;;;;3.00;2.20;;;15.10;73.10;;;;;;4996297;28;21011;-74
2022/10/13 21:16:35;;;;;;;2.40;2.17;;;15.10;73.10;;;;;;4988807;28;20500;-75
2022/10/13 21:19:06;;;;;;;4.10;2.30;;;15.10;72.70;;;;;;5009808;28;20490;-73
2022/10/13 21:21:37;;;;;;;2.50;2.20;;;15.10;72.80;;;;;;4995039;28;20461;-74
2022/10/13 21:24:08;;;;;;;3.07;2.77;;;15.20;72.60;;;;;;4993282;28;20436;-73
2022/10/13 21:26:37;;;;;;;2.90;2.50;;;15.10;73.10;;;;;;4986055;28;20477;-72
2022/10/13 21:29:07;;;;;;;3.73;2.83;;;15.20;73.10;;;;;;4982664;28;20441;-74
2022/10/13 21:31:36;;;;;;;1.93;1.83;;;15.10;73.10;;;;;;4992920;28;20494;-73
2022/10/13 21:34:04;;;;;;;2.00;1.90;;;15.10;72.70;;;;;;4993636;28;20453;-74
2022/10/13 21:36:34;;;;;;;2.50;1.90;;;15.10;72.30;;;;;;4990406;28;20461;-73
2022/10/13 21:39:05;;;;;;;2.43;2.23;;;15.20;73.10;;;;;;4993770;28;20480;-73
2022/10/13 21:41:35;;;;;;;2.20;1.87;;;15.20;72.80;;;;;;4985862;28;20714;-73
2022/10/13 21:44:04;;;;;;;2.10;1.90;;;15.10;72.30;;;;;;4990884;28;20539;-75
2022/10/13 21:46:35;;;;;;;1.93;1.73;;;15.10;72.20;;;;;;4980647;28;20456;-74
2022/10/13 21:49:05;;;;;;;1.90;1.80;;;15.20;72.50;;;;;;4993865;28;20459;-74
2022/10/13 21:51:36;;;;;;;2.03;1.93;;;15.10;72.50;;;;;;4992604;28;20445;-73
2022/10/13 21:54:08;;;;;;;2.33;2.13;;;15.10;72.40;;;;;;5017753;28;20865;-72
2022/10/13 21:56:37;;;;;;;2.43;2.17;;;15.20;72.80;;;;;;4994395;28;20928;-74
2022/10/13 21:59:06;;;;;;;2.83;2.20;;;15.20;73.10;;;;;;5009724;28;20544;-73
2022/10/13 22:01:36;;;;;;;2.13;2.00;;;15.20;72.80;;;;;;5007167;28;20449;-73
2022/10/13 22:04:11;;;;;;;2.50;1.90;;;15.20;72.80;;;;;;4995486;28;20444;-73
2022/10/13 22:06:40;;;;;;;1.93;1.80;;;15.20;72.40;;;;;;4992014;28;20492;-74
2022/10/13 22:09:09;;;;;;;1.90;1.70;;;15.20;73.10;;;;;;4991847;28;20451;-75
2022/10/13 22:11:39;;;;;;;1.80;1.70;;;15.20;73.30;;;;;;4988794;28;20518;-72
2022/10/13 22:14:13;;;;;;;2.30;2.10;;;15.10;72.70;;;;;;4992025;28;20803;-72
2022/10/13 22:16:45;;;;;;;1.50;1.40;;;15.20;73.70;;;;;;4995813;28;20480;-73
2022/10/13 22:19:13;;;;;;;2.50;1.93;;;15.20;73.10;;;;;;4985580;28;20472;-73
2022/10/13 22:21:44;;;;;;;2.33;2.20;;;15.10;72.80;;;;;;4992136;28;20522;-73
2022/10/13 22:24:15;;;;;;;1.90;1.77;;;15.20;73.00;;;;;;5016123;28;20499;-72
2022/10/13 22:26:44;;;;;;;2.23;2.00;;;15.10;74.20;;;;;;4971009;28;20564;-73
2022/10/13 22:29:15;;;;;;;2.10;1.90;;;15.10;72.80;;;;;;4990015;28;20440;-73
2022/10/13 22:31:45;;;;;;;1.93;1.80;;;15.20;73.20;;;;;;5000441;28;20447;-72
2022/10/13 22:34:14;;;;;;;2.10;1.90;;;15.10;72.90;;;;;;4992995;28;20441;-73
2022/10/13 22:36:42;;;;;;;1.80;1.60;;;15.20;73.20;;;;;;4983574;28;20507;-74
2022/10/13 22:39:13;;;;;;;1.73;1.63;;;15.10;72.60;;;;;;5012019;28;20444;-72
2022/10/13 22:41:41;;;;;;;1.87;1.77;;;15.10;73.10;;;;;;4987646;28;20454;-73
2022/10/13 22:44:10;;;;;;;1.63;1.53;;;15.10;72.40;;;;;;4992510;28;20440;-73
2022/10/13 22:46:39;;;;;;;2.30;1.60;;;15.20;72.50;;;;;;4992067;28;20585;-74
2022/10/13 22:49:13;;;;;;;2.40;1.73;;;15.10;72.30;;;;;;4993038;28;20441;-74
2022/10/13 22:51:42;;;;;;;1.87;1.70;;;15.10;73.20;;;;;;4987211;28;20448;-75
2022/10/13 22:54:12;;;;;;;1.63;1.53;;;15.10;72.10;;;;;;4989984;28;20441;-73
2022/10/13 22:56:41;;;;;;;1.83;1.60;;;15.10;72.10;;;;;;5000462;28;21004;-75
2022/10/13 22:59:11;;;;;;;1.53;1.43;;;15.10;73.30;;;;;;5011680;28;20920;-74
2022/10/13 23:01:39;;;;;;;1.77;1.67;;;15.10;73.10;;;;;;4986438;28;20477;-74
2022/10/13 23:04:08;;;;;;;1.80;1.70;;;15.20;73.40;;;;;;4983505;28;20437;-73
2022/10/13 23:06:38;;;;;;;1.90;1.80;;;15.10;72.60;;;;;;4991260;28;20445;-75
2022/10/13 23:09:10;;;;;;;2.00;1.50;;;15.20;72.10;;;;;;4991419;28;20437;-73
2022/10/13 23:11:39;;;;;;;1.60;1.50;;;15.10;72.60;;;;;;4990174;28;20468;-74
2022/10/13 23:14:11;;;;;;;1.57;1.47;;;15.20;72.80;;;;;;4992860;28;20437;-72
2022/10/13 23:16:39;;;;;;;1.57;1.47;;;15.10;72.30;;;;;;5007747;28;20861;-73
2022/10/13 23:19:08;;;;;;;1.90;1.70;;;15.10;72.50;;;;;;4993003;28;20441;-74
2022/10/13 23:21:38;;;;;;;1.53;1.43;;;15.10;72.40;;;;;;4989908;28;20469;-73
2022/10/13 23:24:07;;;;;;;1.70;1.60;;;15.10;71.90;;;;;;4987718;28;20971;-73
2022/10/13 23:26:36;;;;;;;1.73;1.63;;;15.20;72.20;;;;;;5004137;28;20610;-73
2022/10/13 23:29:04;;;;;;;1.47;1.37;;;15.10;71.80;;;;;;4986330;28;20522;-73
2022/10/13 23:31:33;;;;;;;1.67;1.57;;;15.10;71.50;;;;;;4983386;28;20441;-73
2022/10/13 23:34:02;;;;;;;1.60;1.50;;;15.10;71.50;;;;;;4989598;28;20500;-73
2022/10/13 23:36:32;;;;;;;2.23;1.93;;;15.10;71.70;;;;;;5030747;23;21091;-70
2022/10/13 23:39:04;;;;;;;1.33;1.23;;;15.10;71.80;;;;;;4988583;28;20510;-71
2022/10/13 23:41:32;;;;;;;1.40;1.30;;;15.10;72.20;;;;;;4975233;28;20575;-71
2022/10/13 23:44:01;;;;;;;1.37;1.27;;;15.10;72.10;;;;;;4999795;28;20477;-70
2022/10/13 23:46:29;;;;;;;1.83;1.67;;;15.10;72.50;;;;;;4998310;28;20448;-70
2022/10/13 23:48:58;;;;;;;1.90;1.80;;;15.10;74.10;;;;;;4983679;28;20877;-70
2022/10/13 23:51:26;;;;;;;1.40;1.30;;;15.20;72.40;;;;;;5008710;28;20936;-70
2022/10/13 23:53:55;;;;;;;1.80;1.70;;;15.10;73.50;;;;;;4980845;28;21034;-70
2022/10/13 23:56:25;;;;;;;1.80;1.70;;;15.10;72.80;;;;;;4978557;28;20437;-69
2022/10/13 23:58:53;;;;;;;1.60;1.50;;;15.20;74.20;;;;;;4994583;28;20517;-70
